Nunnelly, Tennessee
Current Conditions -  °F | °C
As of 4:15 PM on Monday 20 Oct 2014 (Local Time) from KMRC Reporting Station
Broken Clouds Broken Clouds  
Wind Chill: 64°   Ceiling: 9000
Heat Index: 64°   Visibility: 10mi
Dew Point: 52°   Wind: 0mph
Humidity: 64%   Direction: NA
Pressure: 29.99"   Gusts: NA
Location:  35.86°N, 87.47°W
Report Text: KMRC 202115Z AUTO 00000KT 10SM BKN090 18/11 A2999 RMK
Loading
Personal Weather Stations






























Interactive Weather Map
Tropical Storm Tracking
New forecast layout! Learn more

10-Day Weather Forecast

Advertisements
Track Severe Weather on mobile